Time;durP1;ratioP1;P1;durP2;ratioP2;P2;SDS_P1;SDS_P2;PMS_P1;PMS_P2;Temp;Humidity;BMP_temperature;BMP_pressure;BME280_temperature;BME280_humidity;BME280_pressure;Samples;Min_cycle;Max_cycle;Signal;HPM_P1;HPM_P2
2020/12/08 00:00:20;;;;;;;24.43;20.97;;;7.80;99.90;;;;;;5033951;28;20467;-46
2020/12/08 00:02:47;;;;;;;28.90;19.90;;;7.60;99.90;;;;;;5033168;28;20434;-47
2020/12/08 00:05:15;;;;;;;32.47;20.03;;;7.80;99.90;;;;;;5033390;28;20489;-46
2020/12/08 00:07:41;;;;;;;27.53;19.80;;;7.70;99.90;;;;;;5033695;28;20896;-46
2020/12/08 00:10:08;;;;;;;29.23;21.90;;;7.50;99.90;;;;;;5034163;28;20853;-47
2020/12/08 00:12:35;;;;;;;27.03;21.10;;;7.80;99.90;;;;;;5033341;28;20921;-46
2020/12/08 00:15:02;;;;;;;30.10;21.47;;;7.20;99.90;;;;;;5033672;28;20963;-46
2020/12/08 00:17:29;;;;;;;25.43;20.57;;;7.10;99.90;;;;;;5033924;28;20922;-46
2020/12/08 00:19:55;;;;;;;29.57;22.17;;;7.50;99.90;;;;;;5033582;28;20432;-46
2020/12/08 00:22:22;;;;;;;29.37;22.83;;;7.50;99.90;;;;;;5033247;28;20426;-46
2020/12/08 00:24:48;;;;;;;31.07;22.70;;;7.60;99.90;;;;;;5033689;28;20492;-46
2020/12/08 00:27:15;;;;;;;33.80;23.97;;;7.80;99.90;;;;;;5032889;28;20433;-46
2020/12/08 00:29:41;;;;;;;28.00;21.93;;;7.60;99.90;;;;;;5033514;28;20486;-46
2020/12/08 00:32:09;;;;;;;32.00;22.80;;;7.80;99.90;;;;;;5033944;28;20475;-46
2020/12/08 00:34:36;;;;;;;29.10;23.53;;;7.70;99.90;;;;;;5033037;28;20520;-47
2020/12/08 00:37:04;;;;;;;30.20;23.33;;;7.70;99.90;;;;;;5033391;28;20510;-46
2020/12/08 00:39:30;;;;;;;33.30;24.70;;;7.70;99.90;;;;;;5033217;28;20439;-46
2020/12/08 00:41:57;;;;;;;30.40;24.03;;;7.50;99.90;;;;;;5033221;28;20480;-46
2020/12/08 00:44:23;;;;;;;34.83;25.90;;;7.40;99.90;;;;;;5032773;28;20472;-47
2020/12/08 00:46:51;;;;;;;32.53;24.70;;;7.70;99.90;;;;;;5033143;28;20461;-47
2020/12/08 00:49:19;;;;;;;39.10;28.13;;;7.70;99.90;;;;;;5015212;28;20863;-46
2020/12/08 00:51:46;;;;;;;30.30;25.60;;;7.50;99.90;;;;;;5015447;28;20449;-47
2020/12/08 00:54:13;;;;;;;33.97;25.27;;;7.50;99.90;;;;;;5015154;28;21002;-47
2020/12/08 00:56:40;;;;;;;37.30;27.23;;;7.60;99.90;;;;;;5032919;28;20954;-47
2020/12/08 00:59:13;;;;;;;35.50;26.47;;;7.60;99.90;;;;;;5015188;28;20456;-47
2020/12/08 01:01:40;;;;;;;36.73;26.80;;;7.80;99.90;;;;;;5015170;28;20535;-47
2020/12/08 01:04:08;;;;;;;37.63;28.40;;;7.60;99.90;;;;;;5014459;28;20470;-45
2020/12/08 01:06:36;;;;;;;38.47;27.27;;;7.50;99.90;;;;;;5015037;28;20528;-47
2020/12/08 01:09:06;;;;;;;37.30;27.37;;;7.60;99.90;;;;;;5015119;28;20459;-46
2020/12/08 01:11:34;;;;;;;40.57;30.37;;;7.50;99.90;;;;;;5015172;28;20463;-47
2020/12/08 01:14:00;;;;;;;44.23;31.30;;;7.20;99.90;;;;;;5014731;28;21003;-46
2020/12/08 01:16:27;;;;;;;39.93;28.80;;;7.60;99.90;;;;;;5015137;28;20852;-47
2020/12/08 01:18:59;;;;;;;40.53;29.47;;;7.20;99.90;;;;;;5014969;28;20535;-46
2020/12/08 01:21:26;;;;;;;42.03;29.80;;;7.30;99.90;;;;;;5014715;28;20439;-47
2020/12/08 01:23:52;;;;;;;42.27;29.63;;;7.20;99.90;;;;;;5014359;28;20480;-47
2020/12/08 01:26:24;;;;;;;41.90;30.40;;;7.20;99.90;;;;;;5014639;28;20459;-46
2020/12/08 01:28:52;;;;;;;38.67;29.50;;;7.30;99.90;;;;;;5014427;28;20530;-48
2020/12/08 01:31:28;;;;;;;45.47;30.20;;;7.00;99.90;;;;;;5015162;28;20447;-47
2020/12/08 01:33:55;;;;;;;44.40;30.70;;;7.20;99.90;;;;;;5014180;28;20472;-46
2020/12/08 01:36:21;;;;;;;43.93;30.13;;;7.30;99.90;;;;;;5014535;28;20459;-46
2020/12/08 01:38:48;;;;;;;41.60;30.37;;;7.30;99.90;;;;;;5031599;28;20446;-47
2020/12/08 01:41:15;;;;;;;42.33;29.40;;;7.30;99.90;;;;;;5014734;28;20428;-47
2020/12/08 01:43:47;;;;;;;46.90;30.90;;;7.50;99.90;;;;;;5014481;28;20484;-48
2020/12/08 01:46:17;;;;;;;43.23;29.93;;;7.20;99.90;;;;;;5014295;28;20461;-48
2020/12/08 01:48:44;;;;;;;43.20;29.90;;;7.20;99.90;;;;;;5031927;28;20480;-48
2020/12/08 01:51:12;;;;;;;45.03;32.60;;;7.50;99.90;;;;;;5014299;28;20494;-48
2020/12/08 01:53:39;;;;;;;40.80;30.50;;;7.50;99.90;;;;;;5031742;28;20488;-48
2020/12/08 01:56:05;;;;;;;41.77;28.23;;;7.40;99.90;;;;;;5031828;28;20520;-48
2020/12/08 01:58:32;;;;;;;40.07;29.70;;;7.70;99.90;;;;;;5014203;28;20449;-48
2020/12/08 02:01:01;;;;;;;43.13;30.27;;;7.50;99.90;;;;;;5014135;28;20475;-48
2020/12/08 02:03:29;;;;;;;45.37;31.50;;;7.50;99.90;;;;;;5031508;28;20460;-48
2020/12/08 02:05:58;;;;;;;43.77;30.67;;;7.50;99.90;;;;;;5014153;28;20482;-48
2020/12/08 02:08:29;;;;;;;41.10;31.50;;;7.50;99.90;;;;;;5031817;28;20526;-48
2020/12/08 02:10:56;;;;;;;39.63;29.27;;;7.70;99.90;;;;;;5014019;28;20501;-48
2020/12/08 02:13:24;;;;;;;40.53;30.10;;;7.30;99.90;;;;;;5014384;28;20444;-47
2020/12/08 02:15:52;;;;;;;44.77;29.20;;;7.40;99.90;;;;;;5015738;28;20463;-45
2020/12/08 02:18:21;;;;;;;45.70;30.37;;;7.40;99.90;;;;;;5016435;28;20453;-45
2020/12/08 02:20:54;;;;;;;42.40;30.10;;;6.90;99.90;;;;;;5015112;28;20449;-47
2020/12/08 02:23:21;;;;;;;41.20;30.70;;;7.50;99.90;;;;;;5032300;28;20498;-47
2020/12/08 02:25:59;;;;;;;47.53;30.83;;;7.50;99.90;;;;;;5033079;28;20428;-47
2020/12/08 02:28:28;;;;;;;41.50;30.90;;;7.70;99.90;;;;;;5014645;28;20568;-47
2020/12/08 02:30:55;;;;;;;46.70;32.83;;;7.50;99.90;;;;;;5014416;28;20448;-47
2020/12/08 02:33:23;;;;;;;43.60;30.90;;;7.60;99.90;;;;;;5013621;28;20898;-47
2020/12/08 02:35:50;;;;;;;45.23;30.90;;;7.50;99.90;;;;;;5014049;28;20445;-47
2020/12/08 02:38:18;;;;;;;43.27;29.53;;;7.50;99.90;;;;;;5014177;28;20514;-47
2020/12/08 02:40:46;;;;;;;47.47;31.13;;;7.40;99.90;;;;;;5031776;28;20527;-47
2020/12/08 02:43:12;;;;;;;47.20;31.40;;;7.60;99.90;;;;;;5013765;28;20511;-46
2020/12/08 02:45:40;;;;;;;48.53;32.27;;;7.50;99.90;;;;;;5013961;28;20440;-48
2020/12/08 02:48:07;;;;;;;45.67;31.63;;;7.70;99.90;;;;;;5031470;28;21014;-46
2020/12/08 02:50:34;;;;;;;43.53;32.00;;;7.30;99.90;;;;;;5032858;28;20783;-47
2020/12/08 02:53:01;;;;;;;44.35;31.35;;;7.50;99.90;;;;;;5017733;28;20534;-47
2020/12/08 02:55:28;;;;;;;42.10;31.50;;;7.20;99.90;;;;;;5035652;28;20482;-46
2020/12/08 02:57:55;;;;;;;45.83;29.83;;;7.20;99.90;;;;;;5017733;28;20494;-47
2020/12/08 03:00:21;;;;;;;56.40;32.80;;;7.50;99.90;;;;;;5017283;28;20996;-47
2020/12/08 03:02:48;;;;;;;45.23;30.73;;;7.50;99.90;;;;;;5017664;28;20467;-47
2020/12/08 03:05:15;;;;;;;43.83;31.27;;;7.40;99.90;;;;;;5039740;22;20471;-45
2020/12/08 03:07:42;;;;;;;42.67;30.97;;;7.40;99.90;;;;;;5017005;28;20536;-46
2020/12/08 03:10:10;;;;;;;45.10;31.80;;;7.40;99.90;;;;;;5016939;28;20423;-46
2020/12/08 03:12:38;;;;;;;49.37;31.63;;;7.40;99.90;;;;;;5016519;28;20819;-46
2020/12/08 03:15:07;;;;;;;43.73;30.17;;;7.20;99.90;;;;;;5016772;28;20480;-46
2020/12/08 03:17:37;;;;;;;44.30;31.05;;;7.30;99.90;;;;;;5016795;28;20942;-45
2020/12/08 03:20:05;;;;;;;44.00;29.97;;;7.50;99.90;;;;;;5016779;28;20267;-46
2020/12/08 03:22:35;;;;;;;46.03;31.63;;;7.50;99.90;;;;;;5016498;28;20419;-46
2020/12/08 03:25:05;;;;;;;44.00;31.10;;;7.40;99.90;;;;;;5017612;28;20470;-45
2020/12/08 03:27:32;;;;;;;43.77;31.13;;;7.20;99.90;;;;;;5018029;28;20433;-46
2020/12/08 03:30:03;;;;;;;45.40;30.33;;;7.40;99.90;;;;;;5018057;28;20414;-45
2020/12/08 03:32:31;;;;;;;49.73;31.90;;;7.20;99.90;;;;;;5016868;28;20201;-47
2020/12/08 03:34:58;;;;;;;44.87;30.70;;;7.40;99.90;;;;;;5016469;28;20753;-45
2020/12/08 03:37:25;;;;;;;45.70;30.80;;;7.70;99.90;;;;;;5016454;28;20452;-45
2020/12/08 03:39:56;;;;;;;45.00;30.00;;;7.50;99.90;;;;;;5016302;28;20472;-46
2020/12/08 03:42:26;;;;;;;47.63;32.77;;;7.50;99.90;;;;;;5015925;28;20418;-45
2020/12/08 03:44:53;;;;;;;43.50;31.40;;;7.50;99.90;;;;;;5033934;28;20540;-46
2020/12/08 03:47:33;;;;;;;40.43;30.37;;;7.70;99.90;;;;;;5016227;28;20955;-46
2020/12/08 03:50:02;;;;;;;43.83;30.73;;;7.60;99.90;;;;;;5016149;28;20412;-45
2020/12/08 03:52:32;;;;;;;47.40;31.07;;;7.70;99.90;;;;;;5015768;28;20498;-46
2020/12/08 03:54:58;;;;;;;46.30;32.60;;;7.50;99.90;;;;;;5015027;28;20443;-45
2020/12/08 03:57:25;;;;;;;42.20;29.20;;;7.90;99.90;;;;;;5032835;28;20442;-46
2020/12/08 03:59:51;;;;;;;44.83;32.33;;;7.50;99.90;;;;;;5033780;28;20440;-46
2020/12/08 04:02:18;;;;;;;45.57;32.50;;;8.00;99.90;;;;;;5014672;28;20459;-46
2020/12/08 04:04:49;;;;;;;46.27;30.17;;;7.90;99.90;;;;;;5015650;28;20481;-46
2020/12/08 04:07:17;;;;;;;49.10;33.43;;;7.80;99.90;;;;;;5015719;28;20452;-46
2020/12/08 04:09:47;;;;;;;43.87;31.63;;;8.10;99.90;;;;;;5033265;28;20489;-46
2020/12/08 04:12:14;;;;;;;42.90;31.00;;;7.80;99.90;;;;;;5033458;28;20411;-46
2020/12/08 04:14:41;;;;;;;46.53;31.63;;;7.60;99.90;;;;;;5015305;28;20467;-46
2020/12/08 04:17:08;;;;;;;44.17;32.23;;;7.60;99.90;;;;;;5015326;28;20416;-46
2020/12/08 04:19:34;;;;;;;44.33;31.63;;;7.60;99.90;;;;;;5015460;28;20447;-46
2020/12/08 04:22:02;;;;;;;45.90;32.03;;;7.60;99.90;;;;;;5015548;28;20441;-46
2020/12/08 04:24:40;;;;;;;47.57;32.17;;;7.90;99.90;;;;;;5015097;28;20446;-46
2020/12/08 04:27:06;;;;;;;53.87;31.30;;;7.60;99.90;;;;;;5015442;28;20815;-46
2020/12/08 04:29:43;;;;;;;45.13;30.80;;;7.60;99.90;;;;;;5015291;28;20911;-46
2020/12/08 04:32:09;;;;;;;49.73;31.10;;;7.90;99.90;;;;;;5033017;28;20431;-46
2020/12/08 04:34:36;;;;;;;42.70;30.43;;;7.70;99.90;;;;;;5032524;28;20435;-46
2020/12/08 04:37:03;;;;;;;42.97;32.97;;;8.00;99.90;;;;;;5033213;28;20460;-46
2020/12/08 04:39:30;;;;;;;48.60;31.90;;;7.80;99.90;;;;;;5033165;28;20432;-46
2020/12/08 04:41:57;;;;;;;43.70;30.87;;;7.60;99.90;;;;;;5032811;28;20435;-47
2020/12/08 04:44:23;;;;;;;44.10;31.50;;;7.50;99.90;;;;;;5032460;28;20427;-47
2020/12/08 04:46:55;;;;;;;45.50;31.23;;;7.60;99.90;;;;;;5032844;28;20412;-46
2020/12/08 04:49:22;;;;;;;43.63;29.50;;;8.00;99.90;;;;;;5032675;28;20475;-46
2020/12/08 04:51:50;;;;;;;50.70;32.43;;;7.80;99.90;;;;;;5031348;28;20913;-46
2020/12/08 04:54:17;;;;;;;44.97;31.23;;;7.40;99.90;;;;;;5014193;28;20474;-46
2020/12/08 04:56:44;;;;;;;44.70;32.20;;;8.00;99.90;;;;;;5032754;28;20478;-46
2020/12/08 04:59:20;;;;;;;41.30;30.63;;;7.50;99.90;;;;;;5032579;28;20443;-46
2020/12/08 05:01:46;;;;;;;47.40;32.20;;;7.80;99.90;;;;;;5032464;28;20438;-46
2020/12/08 05:04:21;;;;;;;43.83;32.07;;;7.50;99.90;;;;;;5032098;28;20465;-45
2020/12/08 05:07:00;;;;;;;47.77;31.83;;;7.80;99.90;;;;;;5032369;28;20438;-46
2020/12/08 05:09:27;;;;;;;43.60;29.40;;;7.50;99.90;;;;;;5032154;28;20559;-46
2020/12/08 05:11:56;;;;;;;51.67;32.60;;;7.60;99.90;;;;;;5032107;28;20455;-46
2020/12/08 05:14:23;;;;;;;49.17;33.50;;;7.80;99.90;;;;;;5031758;28;20979;-46
2020/12/08 05:16:49;;;;;;;49.30;32.00;;;7.70;99.90;;;;;;5032170;28;20435;-46
2020/12/08 05:19:16;;;;;;;44.00;29.70;;;7.70;99.90;;;;;;5032151;28;20416;-46
2020/12/08 05:21:49;;;;;;;45.33;32.33;;;7.60;99.90;;;;;;5014520;28;20439;-46
2020/12/08 05:24:26;;;;;;;47.23;30.90;;;7.60;99.90;;;;;;5031616;28;20460;-46
2020/12/08 05:26:55;;;;;;;44.37;31.70;;;7.60;99.90;;;;;;5031800;28;20924;-46
2020/12/08 05:29:22;;;;;;;47.90;31.43;;;7.70;99.90;;;;;;5031833;28;20502;-46
2020/12/08 05:31:50;;;;;;;50.87;32.10;;;7.90;99.90;;;;;;5031741;28;20912;-46
2020/12/08 05:34:19;;;;;;;45.97;31.10;;;7.90;99.90;;;;;;5032756;28;20548;-45
2020/12/08 05:36:48;;;;;;;49.53;30.97;;;7.80;99.90;;;;;;5032795;28;20955;-46
2020/12/08 05:39:17;;;;;;;41.80;29.23;;;7.60;99.90;;;;;;5032106;28;20804;-46
2020/12/08 05:41:45;;;;;;;42.73;31.53;;;7.60;99.90;;;;;;5031573;28;20429;-46
2020/12/08 05:44:15;;;;;;;48.50;33.37;;;7.50;99.90;;;;;;5013385;28;20894;-46
2020/12/08 05:46:43;;;;;;;41.80;29.40;;;7.90;99.90;;;;;;5031771;28;20399;-46
2020/12/08 05:49:14;;;;;;;49.57;31.13;;;8.00;99.90;;;;;;5031611;28;20471;-46
2020/12/08 05:51:42;;;;;;;47.00;31.23;;;7.90;99.90;;;;;;5031634;28;20415;-46
2020/12/08 05:54:13;;;;;;;44.27;30.70;;;7.70;99.90;;;;;;5031008;28;20448;-46
2020/12/08 05:56:40;;;;;;;46.80;31.93;;;7.10;99.90;;;;;;5031538;28;20829;-46
2020/12/08 05:59:06;;;;;;;42.47;29.17;;;7.40;99.90;;;;;;5031110;28;20519;-46
2020/12/08 06:01:34;;;;;;;44.40;31.60;;;7.50;99.90;;;;;;5031069;28;20519;-46
2020/12/08 06:04:00;;;;;;;43.43;29.60;;;7.80;99.90;;;;;;5030768;28;20502;-46
2020/12/08 06:06:27;;;;;;;45.77;29.97;;;7.70;99.90;;;;;;5031248;28;20480;-46
2020/12/08 06:08:53;;;;;;;52.80;33.07;;;7.80;99.90;;;;;;5030999;28;20751;-46
2020/12/08 06:11:29;;;;;;;49.37;31.53;;;7.60;99.90;;;;;;5030712;28;20440;-46
2020/12/08 06:13:56;;;;;;;48.57;31.60;;;8.00;99.90;;;;;;5030454;28;20479;-46
2020/12/08 06:16:24;;;;;;;42.30;29.57;;;7.80;99.90;;;;;;5031105;28;20559;-45
2020/12/08 06:18:52;;;;;;;44.33;31.77;;;7.70;99.90;;;;;;5031219;28;20727;-46
2020/12/08 06:21:23;;;;;;;50.03;30.73;;;7.60;99.90;;;;;;5031274;28;20494;-46
2020/12/08 06:23:52;;;;;;;48.47;31.03;;;7.90;99.90;;;;;;5030566;28;20424;-46
2020/12/08 06:26:22;;;;;;;42.27;29.87;;;7.80;99.90;;;;;;5033359;28;20473;-45
2020/12/08 06:28:50;;;;;;;40.70;29.70;;;7.50;99.90;;;;;;5035038;28;20472;-45
2020/12/08 06:31:16;;;;;;;44.77;30.43;;;8.00;99.90;;;;;;5034923;28;20479;-46
2020/12/08 06:33:48;;;;;;;39.83;29.37;;;7.70;99.90;;;;;;5016707;28;20498;-45
2020/12/08 06:36:16;;;;;;;43.30;31.40;;;7.50;99.90;;;;;;5034573;28;20587;-45
2020/12/08 06:38:42;;;;;;;44.70;29.87;;;7.50;99.90;;;;;;5034795;28;20457;-46
2020/12/08 06:41:09;;;;;;;45.67;31.23;;;7.70;99.90;;;;;;5034875;28;20437;-46
2020/12/08 06:43:42;;;;;;;46.77;29.80;;;7.50;99.90;;;;;;5034002;28;20461;-45
2020/12/08 06:46:09;;;;;;;46.37;31.27;;;7.60;99.90;;;;;;5034657;28;20462;-46
2020/12/08 06:48:38;;;;;;;44.43;30.70;;;7.80;99.90;;;;;;5034382;28;20542;-46
2020/12/08 06:51:17;;;;;;;43.77;31.30;;;7.50;99.90;;;;;;5034445;28;20424;-47
2020/12/08 06:53:43;;;;;;;42.93;29.40;;;7.50;99.90;;;;;;5033555;28;20469;-47
2020/12/08 06:56:10;;;;;;;46.17;31.50;;;7.60;99.90;;;;;;5016836;28;20444;-46
2020/12/08 06:58:46;;;;;;;41.70;29.93;;;7.60;99.90;;;;;;5034532;28;20520;-47
2020/12/08 07:01:12;;;;;;;39.97;29.10;;;7.40;99.90;;;;;;5034525;28;20440;-47
2020/12/08 07:03:39;;;;;;;49.27;31.10;;;7.70;99.90;;;;;;5033648;28;20443;-46
2020/12/08 07:06:06;;;;;;;45.17;30.40;;;7.50;99.90;;;;;;5034549;28;20459;-46
2020/12/08 07:08:37;;;;;;;40.90;29.87;;;7.50;99.90;;;;;;5034298;28;20516;-46
2020/12/08 07:11:04;;;;;;;41.60;30.63;;;7.40;99.90;;;;;;5034408;28;20820;-46
2020/12/08 07:13:30;;;;;;;39.53;28.97;;;7.70;99.90;;;;;;5033968;28;20977;-45
2020/12/08 07:15:57;;;;;;;44.40;31.17;;;7.50;99.90;;;;;;5033604;28;20502;-46
2020/12/08 07:18:24;;;;;;;49.20;30.37;;;7.60;99.90;;;;;;5034534;28;20469;-46
2020/12/08 07:20:54;;;;;;;44.63;29.70;;;7.70;99.90;;;;;;5034276;28;20996;-45
2020/12/08 07:23:20;;;;;;;43.90;30.70;;;7.70;99.90;;;;;;5034205;28;20436;-44
2020/12/08 07:25:48;;;;;;;42.50;30.27;;;7.40;99.90;;;;;;5034702;28;20472;-47
2020/12/08 07:28:14;;;;;;;45.27;30.80;;;7.60;99.90;;;;;;5017000;28;20428;-46
2020/12/08 07:30:50;;;;;;;41.77;29.53;;;7.50;99.90;;;;;;5016625;28;20977;-46
2020/12/08 07:33:16;;;;;;;43.80;30.00;;;7.50;99.90;;;;;;5034361;28;20402;-45
2020/12/08 07:35:44;;;;;;;44.40;28.53;;;7.70;99.90;;;;;;5016214;28;20439;-45
2020/12/08 07:38:11;;;;;;;43.67;28.80;;;7.60;99.90;;;;;;5032714;28;20589;-45
2020/12/08 07:40:40;;;;;;;40.77;28.27;;;7.50;99.90;;;;;;5034467;28;20505;-45
2020/12/08 07:43:07;;;;;;;39.33;28.70;;;7.60;99.90;;;;;;5035181;28;20436;-45
2020/12/08 07:45:41;;;;;;;47.80;30.83;;;7.50;99.90;;;;;;5035808;28;21052;-45
2020/12/08 07:48:11;;;;;;;46.10;30.40;;;7.50;99.90;;;;;;5033861;28;20436;-45
2020/12/08 07:50:38;;;;;;;43.57;30.43;;;7.50;99.90;;;;;;5016306;28;20797;-46
2020/12/08 07:53:09;;;;;;;44.43;31.30;;;7.60;99.90;;;;;;5033541;28;20418;-45
2020/12/08 07:55:40;;;;;;;44.23;30.57;;;7.70;99.90;;;;;;5033997;28;20446;-45
2020/12/08 07:58:08;;;;;;;42.10;29.63;;;7.60;99.90;;;;;;5033711;28;20448;-45
2020/12/08 08:00:34;;;;;;;49.20;31.40;;;7.50;99.90;;;;;;5035114;28;20420;-46
2020/12/08 08:03:01;;;;;;;40.97;29.80;;;7.50;99.90;;;;;;5035704;28;20455;-45
2020/12/08 08:05:27;;;;;;;43.07;27.73;;;7.50;99.90;;;;;;5015262;28;20476;-44
2020/12/08 08:07:54;;;;;;;46.93;29.07;;;7.30;99.90;;;;;;5033251;28;20428;-45
2020/12/08 08:10:20;;;;;;;42.17;28.80;;;7.50;99.90;;;;;;5033073;28;21002;-44
2020/12/08 08:12:47;;;;;;;37.17;28.20;;;7.60;99.90;;;;;;5033242;28;20436;-46
2020/12/08 08:15:14;;;;;;;50.37;29.73;;;7.80;99.90;;;;;;5032944;28;20461;-46
2020/12/08 08:17:41;;;;;;;44.70;30.90;;;7.50;99.90;;;;;;5032763;28;20458;-46
2020/12/08 08:20:07;;;;;;;41.03;30.67;;;7.70;99.90;;;;;;5032853;28;20411;-45
2020/12/08 08:22:34;;;;;;;37.00;27.23;;;7.60;99.90;;;;;;5033015;28;20458;-46
2020/12/08 08:25:02;;;;;;;43.07;31.43;;;7.60;99.90;;;;;;5032758;28;20434;-45
2020/12/08 08:27:28;;;;;;;38.47;28.40;;;7.50;99.90;;;;;;5032543;28;20416;-46
2020/12/08 08:29:55;;;;;;;44.17;29.73;;;7.80;99.90;;;;;;5014473;28;20479;-46
2020/12/08 08:32:22;;;;;;;43.93;29.70;;;7.30;99.90;;;;;;5014470;28;20419;-48
2020/12/08 08:34:49;;;;;;;39.50;28.43;;;7.50;99.90;;;;;;5032532;28;20464;-46
2020/12/08 08:37:15;;;;;;;43.87;29.83;;;7.80;99.90;;;;;;5032241;28;20486;-47
2020/12/08 08:39:42;;;;;;;48.70;28.27;;;7.50;99.90;;;;;;5032635;28;20408;-46
2020/12/08 08:42:09;;;;;;;40.40;29.07;;;7.80;99.90;;;;;;5032381;28;20860;-46
2020/12/08 08:44:36;;;;;;;38.53;29.50;;;7.80;99.90;;;;;;5032955;28;20461;-46
2020/12/08 08:47:02;;;;;;;47.90;30.80;;;7.50;99.90;;;;;;5032983;28;20468;-47
2020/12/08 08:49:30;;;;;;;40.10;31.13;;;8.00;99.90;;;;;;5033250;28;20473;-45
2020/12/08 08:51:56;;;;;;;42.40;30.33;;;7.50;99.90;;;;;;5032365;28;20710;-45
2020/12/08 08:54:23;;;;;;;49.63;30.97;;;7.50;99.90;;;;;;5032442;28;20504;-46
2020/12/08 08:56:54;;;;;;;41.03;30.40;;;7.50;99.90;;;;;;5032250;28;20507;-46
2020/12/08 08:59:20;;;;;;;42.23;29.37;;;7.40;99.90;;;;;;5032488;28;20494;-45
2020/12/08 09:01:47;;;;;;;48.90;31.63;;;7.60;99.90;;;;;;5032964;28;20442;-45
2020/12/08 09:04:14;;;;;;;40.43;28.43;;;7.70;99.90;;;;;;5055218;22;20546;-48
2020/12/08 09:06:41;;;;;;;44.60;30.03;;;7.60;99.90;;;;;;5032745;28;20416;-47
2020/12/08 09:09:08;;;;;;;41.87;30.80;;;7.10;99.90;;;;;;5032779;28;20458;-49
2020/12/08 09:11:34;;;;;;;46.80;32.20;;;7.50;99.90;;;;;;5032579;28;20432;-47
2020/12/08 09:14:01;;;;;;;44.87;30.47;;;7.40;99.90;;;;;;5032608;28;20467;-46
2020/12/08 09:16:27;;;;;;;46.93;31.33;;;7.10;99.90;;;;;;5033008;28;20487;-47
2020/12/08 09:18:54;;;;;;;45.07;31.17;;;7.40;99.90;;;;;;5033370;28;20439;-47
2020/12/08 09:21:21;;;;;;;39.77;30.03;;;7.00;99.90;;;;;;5032813;28;20433;-47
2020/12/08 09:23:48;;;;;;;43.00;30.27;;;7.10;99.90;;;;;;5031737;28;20437;-48
2020/12/08 09:26:15;;;;;;;46.87;30.80;;;7.30;99.90;;;;;;5032173;28;20200;-49
2020/12/08 09:28:42;;;;;;;45.07;31.40;;;7.10;99.90;;;;;;5031345;28;20520;-48
2020/12/08 09:31:09;;;;;;;41.50;29.10;;;7.60;99.90;;;;;;5031259;28;20487;-48
2020/12/08 09:33:37;;;;;;;43.23;31.07;;;7.20;99.90;;;;;;5031726;28;20471;-48
2020/12/08 09:36:04;;;;;;;43.67;30.63;;;7.20;99.90;;;;;;5031963;28;20956;-47
2020/12/08 09:38:31;;;;;;;44.57;31.40;;;7.20;99.90;;;;;;5031856;28;20415;-47
2020/12/08 09:40:58;;;;;;;39.50;30.65;;;7.40;99.90;;;;;;5032065;28;20415;-46
2020/12/08 09:43:25;;;;;;;41.60;30.00;;;7.20;99.90;;;;;;5031527;28;20204;-47
2020/12/08 09:45:52;;;;;;;45.30;32.47;;;7.20;99.90;;;;;;5031930;28;20455;-46
2020/12/08 09:48:18;;;;;;;44.17;30.47;;;7.40;99.90;;;;;;5031674;28;20437;-47
2020/12/08 09:50:45;;;;;;;46.57;31.70;;;7.30;99.90;;;;;;5031464;28;20480;-47
2020/12/08 09:53:12;;;;;;;41.63;30.27;;;7.20;99.90;;;;;;5030917;28;20956;-47
2020/12/08 09:55:38;;;;;;;41.90;31.43;;;7.10;99.90;;;;;;5031274;28;20466;-48
2020/12/08 09:58:06;;;;;;;42.00;30.23;;;7.30;99.90;;;;;;5031605;28;20428;-48
2020/12/08 10:00:32;;;;;;;49.10;30.38;;;7.20;99.90;;;;;;5030976;28;20889;-47
2020/12/08 10:02:59;;;;;;;38.93;30.00;;;7.20;99.90;;;;;;5013563;28;20200;-48
2020/12/08 10:05:26;;;;;;;40.37;31.03;;;7.10;99.90;;;;;;5013458;28;20529;-48
2020/12/08 10:07:52;;;;;;;44.00;32.60;;;7.20;99.90;;;;;;5031615;28;20440;-48
2020/12/08 10:10:19;;;;;;;42.83;29.53;;;7.20;99.90;;;;;;5031431;28;20495;-48
2020/12/08 10:12:46;;;;;;;40.67;29.57;;;7.30;99.90;;;;;;5031393;28;20437;-46
2020/12/08 10:15:13;;;;;;;44.07;31.40;;;7.10;99.90;;;;;;5031240;28;20456;-47
2020/12/08 10:17:39;;;;;;;44.87;30.60;;;7.10;99.90;;;;;;5031712;28;20784;-49
2020/12/08 10:20:06;;;;;;;52.00;33.97;;;7.20;99.90;;;;;;5031307;28;20921;-48
2020/12/08 10:22:32;;;;;;;45.10;30.70;;;7.20;99.90;;;;;;5031135;28;20432;-47
2020/12/08 10:24:59;;;;;;;43.20;29.38;;;7.20;99.90;;;;;;5031100;28;20493;-48
2020/12/08 10:27:26;;;;;;;46.33;32.30;;;7.20;99.90;;;;;;5031529;28;20202;-47
2020/12/08 10:29:52;;;;;;;42.97;29.77;;;7.20;99.90;;;;;;5031344;28;20843;-47
2020/12/08 10:32:20;;;;;;;43.93;30.77;;;7.10;99.90;;;;;;5030953;28;20492;-48
2020/12/08 10:34:47;;;;;;;40.77;30.00;;;7.30;99.90;;;;;;5031114;28;20463;-48
2020/12/08 10:37:13;;;;;;;49.60;32.90;;;7.20;99.90;;;;;;5031107;28;20432;-48
2020/12/08 10:39:40;;;;;;;50.93;31.80;;;7.40;99.90;;;;;;5031412;28;20420;-48
2020/12/08 10:42:06;;;;;;;43.07;31.10;;;7.40;99.90;;;;;;5031245;28;20431;-49
2020/12/08 10:44:33;;;;;;;43.97;30.30;;;6.80;99.90;;;;;;5030688;28;20459;-46
2020/12/08 10:47:00;;;;;;;43.13;30.20;;;7.40;99.90;;;;;;5031157;28;20935;-47
2020/12/08 10:49:27;;;;;;;45.72;31.55;;;7.50;99.90;;;;;;5030763;28;20543;-48
2020/12/08 10:51:54;;;;;;;44.47;31.33;;;7.30;99.90;;;;;;5031100;28;20243;-48
2020/12/08 10:54:20;;;;;;;43.27;32.33;;;7.40;99.90;;;;;;5031207;28;20461;-47
2020/12/08 10:56:51;;;;;;;40.20;30.33;;;7.60;99.90;;;;;;5031072;28;20433;-47
2020/12/08 10:59:17;;;;;;;46.37;31.00;;;7.60;99.90;;;;;;5031250;28;20663;-47
2020/12/08 11:01:44;;;;;;;41.73;30.83;;;7.40;99.90;;;;;;5031170;28;20408;-48
2020/12/08 11:04:10;;;;;;;44.27;30.77;;;7.50;99.90;;;;;;5031159;28;20844;-47
2020/12/08 11:06:38;;;;;;;46.23;32.37;;;7.60;99.90;;;;;;5031718;28;20959;-46
2020/12/08 11:09:04;;;;;;;40.97;29.53;;;7.40;99.90;;;;;;5031639;28;20451;-47
2020/12/08 11:11:32;;;;;;;46.22;31.13;;;7.40;99.90;;;;;;5032808;28;20912;-47
2020/12/08 11:14:00;;;;;;;37.17;29.50;;;7.40;99.90;;;;;;5035114;28;20224;-47
2020/12/08 11:16:28;;;;;;;45.00;31.15;;;7.30;99.90;;;;;;5035886;28;20422;-46
2020/12/08 11:18:56;;;;;;;46.33;32.00;;;7.50;99.90;;;;;;5038389;28;20293;-46
2020/12/08 11:21:27;;;;;;;44.23;30.50;;;7.10;99.90;;;;;;5038445;28;20782;-46
2020/12/08 11:23:55;;;;;;;42.73;31.33;;;6.80;99.90;;;;;;5038899;28;20431;-46
2020/12/08 11:26:22;;;;;;;41.40;30.53;;;7.70;99.90;;;;;;5039285;28;20493;-48
2020/12/08 11:28:48;;;;;;;38.83;30.20;;;7.50;99.90;;;;;;5038900;28;20448;-45
2020/12/08 11:31:15;;;;;;;39.33;30.00;;;7.30;99.90;;;;;;5035703;28;20436;-46
2020/12/08 11:33:42;;;;;;;44.43;32.00;;;7.50;99.90;;;;;;5034865;28;20738;-46
2020/12/08 11:36:08;;;;;;;42.60;30.03;;;7.40;99.90;;;;;;5034410;28;20433;-47
2020/12/08 11:38:36;;;;;;;40.20;30.30;;;7.30;99.90;;;;;;5034811;28;20514;-46
2020/12/08 11:41:04;;;;;;;40.80;29.43;;;7.50;99.90;;;;;;5016732;28;20912;-47
2020/12/08 11:43:31;;;;;;;42.93;30.63;;;7.50;99.90;;;;;;5016435;28;20490;-47
2020/12/08 11:45:58;;;;;;;44.33;30.73;;;7.50;99.90;;;;;;5035645;28;20489;-46
2020/12/08 11:48:26;;;;;;;40.85;29.35;;;7.70;99.90;;;;;;5035557;28;20447;-46
2020/12/08 11:50:52;;;;;;;39.97;31.10;;;7.60;99.90;;;;;;5034663;28;20275;-47
2020/12/08 11:53:19;;;;;;;42.17;31.67;;;7.60;99.90;;;;;;5034312;28;20460;-46
2020/12/08 11:55:46;;;;;;;41.40;29.57;;;7.40;99.90;;;;;;5016786;28;20222;-46
2020/12/08 11:58:13;;;;;;;43.13;31.77;;;7.70;99.90;;;;;;5016786;28;20551;-45
2020/12/08 12:00:40;;;;;;;40.43;30.43;;;7.70;99.90;;;;;;5034170;28;20912;-45
2020/12/08 12:03:07;;;;;;;45.43;32.37;;;7.50;99.90;;;;;;5034044;28;20480;-48
2020/12/08 12:05:33;;;;;;;42.20;31.87;;;7.50;99.90;;;;;;5034134;28;20438;-48
2020/12/08 12:08:00;;;;;;;50.07;32.60;;;7.20;99.90;;;;;;5034358;28;20437;-46
2020/12/08 12:10:26;;;;;;;50.50;33.10;;;7.60;99.90;;;;;;5033558;28;20899;-48
2020/12/08 12:12:53;;;;;;;43.30;34.13;;;7.50;99.90;;;;;;5033414;28;20429;-48
2020/12/08 12:15:20;;;;;;;46.47;33.40;;;7.90;99.90;;;;;;5034377;28;20423;-47
2020/12/08 12:17:47;;;;;;;42.90;33.50;;;7.60;99.90;;;;;;5034056;28;20441;-47
2020/12/08 12:20:14;;;;;;;49.60;32.20;;;7.50;99.90;;;;;;5034172;28;20423;-45
2020/12/08 12:22:40;;;;;;;46.90;35.33;;;7.60;99.90;;;;;;5032919;28;20427;-46
2020/12/08 12:25:07;;;;;;;45.70;33.93;;;7.60;99.90;;;;;;5033885;28;20423;-47
2020/12/08 12:27:34;;;;;;;47.97;33.87;;;7.50;99.90;;;;;;5035206;28;20438;-46
2020/12/08 12:30:00;;;;;;;52.40;35.90;;;7.50;99.90;;;;;;5035277;28;20487;-46
2020/12/08 12:32:28;;;;;;;58.63;34.40;;;7.80;99.90;;;;;;5035778;28;20409;-48
2020/12/08 12:34:54;;;;;;;45.90;35.40;;;7.80;99.90;;;;;;5035777;28;20516;-47
2020/12/08 12:37:21;;;;;;;52.57;35.93;;;8.10;99.90;;;;;;5036134;28;20399;-48